Atlantic Frontier — VRDJ7 — position and weather

sailwx.info

Track history (hours):
 
Tides and Currents Weather Stations Pressure Air Temp Water Temp Dewpoint Dewpoint Depression Visibility Wind Speed Wind Dir Waves Ship Positions

Atlantic Frontier

Last reported at 2017-Oct-17 21:49 UTC. Time now 2017-Oct-19 05:37 UTC.
Position N 29°47' W 093°21'.

Length 183 m; draft 7.4 m.

Type: Tanker. MMSI: 477969700.

Date/timePositionNaut miles runAvg speedWind from/ knotsBaromVisibWave heightAir tempDewpointWater temp
2017-Oct-17 21:49N 29°47' W 093°21'3 8.4
2017-Oct-17 21:30N 29°50' W 093°21'4 8.8
2017-Oct-17 21:01N 29°54' W 093°21'5 9.6
2017-Oct-17 20:30N 29°59' W 093°20'3 6.9
2017-Oct-17 20:00N 30°02' W 093°20'4 7.1
2017-Oct-17 19:30N 30°06' W 093°20'4 7.2
2017-Oct-17 19:01N 30°09' W 093°20'1 2.9
2017-Oct-17 18:31N 30°11' W 093°19'0 0.0
2017-Oct-17 17:58N 30°11' W 093°19'0 0.0
2017-Oct-17 17:28N 30°11' W 093°19'0 0.0
2017-Oct-17 16:58N 30°11' W 093°19'0 0.0
2017-Oct-17 16:28N 30°11' W 093°19'0 0.0
2017-Oct-17 15:58N 30°11' W 093°19'0 0.0
2017-Oct-17 15:28N 30°11' W 093°19'0 0.0
2017-Oct-17 14:58N 30°11' W 093°19'0 0.0
2017-Oct-17 14:28N 30°11' W 093°19'0 0.0
2017-Oct-17 13:58N 30°11' W 093°19'0 0.0
2017-Oct-17 13:28N 30°11' W 093°19'0 0.0
2017-Oct-17 12:58N 30°11' W 093°19'0 0.0
2017-Oct-17 12:28N 30°11' W 093°19'0 0.0
2017-Oct-17 11:58N 30°11' W 093°19'0 0.0
2017-Oct-17 11:28N 30°11' W 093°19'0 0.0
2017-Oct-17 10:58N 30°11' W 093°19'0 0.0
2017-Oct-17 10:28N 30°11' W 093°19'0 0.0
2017-Oct-17 09:58N 30°11' W 093°19'0 0.0
2017-Oct-17 09:28N 30°11' W 093°19'0 0.0
2017-Oct-17 08:58N 30°11' W 093°19'0 0.0
2017-Oct-17 08:28N 30°11' W 093°19'0 0.0
2017-Oct-17 07:58N 30°11' W 093°19'0 0.0
2017-Oct-17 07:28N 30°11' W 093°19'0 0.0
2017-Oct-17 06:58N 30°11' W 093°19'0 0.0
2017-Oct-17 06:28N 30°11' W 093°19'0 0.0
2017-Oct-17 05:58N 30°11' W 093°19'0 0.0
2017-Oct-17 05:28N 30°11' W 093°19'0 0.0
2017-Oct-17 04:58N 30°11' W 093°19'0 0.0
2017-Oct-17 04:28N 30°11' W 093°19'0 0.0
2017-Oct-17 03:58N 30°11' W 093°19'0 0.0
2017-Oct-17 03:16N 30°11' W 093°19'0 0.0
2017-Oct-17 02:58N 30°11' W 093°19'0 0.0
2017-Oct-17 02:28N 30°11' W 093°19'0 0.0
2017-Oct-17 01:58N 30°11' W 093°19'0 0.0
2017-Oct-17 01:28N 30°11' W 093°19'0 0.0
2017-Oct-17 00:58N 30°11' W 093°19'0 0.0
2017-Oct-17 00:28N 30°11' W 093°19'0 0.0
2017-Oct-16 23:58N 30°11' W 093°19'0 0.0
2017-Oct-16 23:28N 30°11' W 093°19'0 0.0
2017-Oct-16 22:58N 30°11' W 093°19'0 0.0
2017-Oct-16 22:28N 30°11' W 093°19'0 0.0
2017-Oct-16 21:58N 30°11' W 093°19'0 0.0
2017-Oct-16 21:28N 30°11' W 093°19'0 0.0
2017-Oct-16 20:58N 30°11' W 093°19'0 0.0
2017-Oct-16 20:28N 30°11' W 093°19'0 0.0
2017-Oct-16 19:58N 30°11' W 093°19'0 0.0
2017-Oct-16 19:28N 30°11' W 093°19'0 0.0
2017-Oct-16 18:58N 30°11' W 093°19'0 0.0
2017-Oct-16 18:28N 30°11' W 093°19'0 0.0
2017-Oct-16 17:58N 30°11' W 093°19'0 0.0
2017-Oct-16 17:28N 30°11' W 093°19'0 0.0
2017-Oct-16 16:58N 30°11' W 093°19'0 0.0
2017-Oct-16 16:28N 30°11' W 093°19'0 0.0
2017-Oct-16 15:58N 30°11' W 093°19'0 0.0
2017-Oct-16 15:28N 30°11' W 093°19'0 0.0
2017-Oct-16 14:58N 30°11' W 093°19'0 0.0
2017-Oct-16 13:58N 30°11' W 093°19'0 0.0
2017-Oct-16 13:28N 30°11' W 093°19'0 0.0
2017-Oct-16 12:58N 30°11' W 093°19'0 0.0
2017-Oct-16 12:28N 30°11' W 093°19'0 0.0
2017-Oct-16 11:58N 30°11' W 093°19'0 0.0
2017-Oct-16 11:28N 30°11' W 093°19'0 0.0
2017-Oct-16 10:58N 30°11' W 093°19'0 0.0
2017-Oct-16 10:28N 30°11' W 093°19'0 0.0
2017-Oct-16 09:58N 30°11' W 093°19'0 0.0
2017-Oct-16 09:28N 30°11' W 093°19'0 0.0
2017-Oct-16 08:58N 30°11' W 093°19'0 0.0
2017-Oct-16 08:28N 30°11' W 093°19'0 0.0
2017-Oct-16 07:58N 30°11' W 093°19'0 0.0
2017-Oct-16 07:28N 30°11' W 093°19'0 0.0
2017-Oct-16 06:58N 30°11' W 093°19'0 0.0
2017-Oct-16 06:28N 30°11' W 093°19'0 0.0
2017-Oct-16 05:58N 30°11' W 093°19'0 0.0
2017-Oct-16 05:25N 30°11' W 093°19'0 0.0
2017-Oct-16 04:58N 30°11' W 093°19'0 0.0
2017-Oct-16 04:28N 30°11' W 093°19'0 0.0
2017-Oct-16 03:58N 30°11' W 093°19'0 0.0
2017-Oct-16 03:28N 30°11' W 093°19'0 0.0
2017-Oct-16 02:58N 30°11' W 093°19'0 0.0
2017-Oct-16 02:28N 30°11' W 093°19'0 0.0
2017-Oct-16 01:58N 30°11' W 093°19'0 0.0
2017-Oct-16 01:28N 30°11' W 093°19'0 0.0
2017-Oct-16 00:58N 30°11' W 093°19'0 0.0
2017-Oct-16 00:28N 30°11' W 093°19'0 0.0
2017-Oct-15 23:58N 30°11' W 093°19'0 0.0
2017-Oct-15 23:28N 30°11' W 093°19'0 0.0
2017-Oct-15 22:58N 30°11' W 093°19'0 0.0
2017-Oct-15 22:28N 30°11' W 093°19'0 0.0
2017-Oct-15 21:58N 30°11' W 093°19'0 0.0
2017-Oct-15 21:28N 30°11' W 093°19'0 0.0
2017-Oct-15 20:58N 30°11' W 093°19'0 0.0
2017-Oct-15 20:28N 30°11' W 093°19'0 0.0
2017-Oct-15 19:58N 30°11' W 093°19'0 0.0
2017-Oct-15 19:28N 30°11' W 093°19'0 0.0
2017-Oct-15 18:58N 30°11' W 093°19'0 0.0
2017-Oct-15 18:28N 30°11' W 093°19'0 0.0
2017-Oct-15 17:58N 30°11' W 093°19'0 0.0
2017-Oct-15 17:28N 30°11' W 093°19'0 0.0
2017-Oct-15 16:58N 30°11' W 093°19'0 0.0
2017-Oct-15 16:28N 30°11' W 093°19'0 0.0
2017-Oct-15 15:58N 30°11' W 093°19'0 0.0
2017-Oct-15 15:28N 30°11' W 093°19'0 0.0
2017-Oct-15 14:58N 30°11' W 093°19'0 0.0
2017-Oct-15 13:58N 30°11' W 093°19'0 0.0
2017-Oct-15 13:28N 30°11' W 093°19'0 0.0
2017-Oct-15 12:58N 30°11' W 093°19'0 0.0
2017-Oct-15 12:28N 30°11' W 093°19'0 0.0
2017-Oct-15 11:58N 30°11' W 093°19'0 0.0
2017-Oct-15 11:28N 30°11' W 093°19'0 0.0
2017-Oct-15 10:58N 30°11' W 093°19'0 0.0
2017-Oct-15 10:28N 30°11' W 093°19'0 0.0
2017-Oct-15 09:58N 30°11' W 093°19'0 0.0
2017-Oct-15 09:28N 30°11' W 093°19'0 0.0
2017-Oct-15 08:58N 30°11' W 093°19'0 0.0
2017-Oct-15 08:28N 30°11' W 093°19'0 0.0
2017-Oct-15 07:58N 30°11' W 093°19'0 0.0
2017-Oct-15 07:28N 30°11' W 093°19'0 0.0
2017-Oct-15 06:58N 30°11' W 093°19'0 0.0
2017-Oct-15 06:28N 30°11' W 093°19'0 0.0
2017-Oct-15 05:58N 30°11' W 093°19'0 0.0
2017-Oct-15 05:28N 30°11' W 093°19'0 0.0
2017-Oct-15 04:58N 30°11' W 093°19'0 0.0
2017-Oct-15 04:28N 30°11' W 093°19'0 0.0
2017-Oct-15 03:58N 30°11' W 093°19'0 0.0
2017-Oct-15 03:28N 30°11' W 093°19'0 0.0
2017-Oct-15 02:58N 30°11' W 093°19'0 0.0
2017-Oct-15 02:28N 30°11' W 093°19'0 0.0
2017-Oct-15 01:58N 30°11' W 093°19'0 0.0
2017-Oct-15 01:28N 30°11' W 093°19'0 0.0
2017-Oct-15 00:58N 30°11' W 093°19'0 0.0
2017-Oct-15 00:28N 30°11' W 093°19'0 0.0
2017-Oct-14 23:55N 30°11' W 093°19'0 0.0
2017-Oct-14 23:28N 30°11' W 093°19'0 0.0
2017-Oct-14 22:58N 30°11' W 093°19'0 0.0
2017-Oct-14 22:28N 30°11' W 093°19'0 0.0
2017-Oct-14 21:58N 30°11' W 093°19'0 0.0
2017-Oct-14 21:28N 30°11' W 093°19'0 0.0
2017-Oct-14 20:58N 30°11' W 093°19'0 0.0
2017-Oct-14 20:28N 30°11' W 093°19'0 0.0
2017-Oct-14 19:58N 30°11' W 093°19'0 0.0
2017-Oct-14 19:28N 30°11' W 093°19'0 0.0
2017-Oct-14 18:58N 30°11' W 093°19'0 0.0
2017-Oct-14 18:28N 30°11' W 093°19'0 0.0
2017-Oct-14 17:58N 30°11' W 093°19'0 0.0
2017-Oct-14 17:28N 30°11' W 093°19'0 0.0
2017-Oct-14 16:58N 30°11' W 093°19'0 0.0
2017-Oct-14 16:13N 30°11' W 093°19'0 0.0
2017-Oct-14 15:58N 30°11' W 093°19'0 0.0
2017-Oct-14 15:28N 30°11' W 093°19'0 0.0
2017-Oct-14 14:58N 30°11' W 093°19'0 0.0
2017-Oct-14 14:28N 30°11' W 093°19'0 0.0
2017-Oct-14 13:58N 30°11' W 093°19'0 0.0
2017-Oct-14 13:28N 30°11' W 093°19'0 0.0
2017-Oct-14 12:58N 30°11' W 093°19'0 0.0
2017-Oct-14 12:28N 30°11' W 093°19'0 0.0
2017-Oct-14 11:55N 30°11' W 093°19'0 0.0
2017-Oct-14 11:22N 30°11' W 093°19'0 0.0
2017-Oct-14 10:58N 30°11' W 093°19'0 0.0
2017-Oct-14 10:28N 30°11' W 093°19'0 0.0
2017-Oct-14 09:58N 30°11' W 093°19'0 0.0
2017-Oct-14 09:25N 30°11' W 093°19'0 0.0
2017-Oct-14 08:58N 30°11' W 093°19'0 0.0
2017-Oct-14 08:28N 30°11' W 093°19'0 0.0
2017-Oct-14 07:58N 30°11' W 093°19'0 0.0
2017-Oct-14 07:28N 30°11' W 093°19'0 0.0
2017-Oct-14 06:58N 30°11' W 093°19'0 0.0
2017-Oct-14 06:28N 30°11' W 093°19'0 0.0
2017-Oct-14 05:58N 30°11' W 093°19'0 0.0
2017-Oct-14 05:28N 30°11' W 093°19'0 0.0
2017-Oct-14 04:58N 30°11' W 093°19'0 0.0
2017-Oct-14 04:28N 30°11' W 093°19'0 0.0
2017-Oct-14 03:58N 30°11' W 093°19'0 0.0
2017-Oct-14 03:28N 30°11' W 093°19'0 0.0
2017-Oct-14 02:58N 30°11' W 093°19'0 0.0
2017-Oct-14 02:28N 30°11' W 093°19'0 0.0
2017-Oct-14 01:58N 30°11' W 093°19'0 0.0
2017-Oct-14 01:28N 30°11' W 093°19'0 0.0
2017-Oct-14 00:58N 30°11' W 093°19'0 0.0
2017-Oct-14 00:28N 30°11' W 093°19'0 0.0
2017-Oct-13 23:58N 30°11' W 093°19'0 0.0
2017-Oct-13 23:28N 30°11' W 093°19'0 0.0
2017-Oct-13 22:58N 30°11' W 093°19'0 0.0
2017-Oct-13 22:28N 30°11' W 093°19'0 0.0
2017-Oct-13 21:58N 30°11' W 093°19'0 0.0
2017-Oct-13 21:28N 30°11' W 093°19'0 0.0
2017-Oct-13 20:55N 30°11' W 093°19'0 0.0
2017-Oct-13 20:28N 30°11' W 093°19'0 0.0
2017-Oct-13 19:58N 30°11' W 093°19'0 0.0
2017-Oct-13 19:28N 30°11' W 093°19'0 0.0
2017-Oct-13 18:58N 30°11' W 093°19'0 0.0
2017-Oct-13 18:28N 30°11' W 093°19'0 0.0
2017-Oct-13 17:58N 30°11' W 093°19'0 0.0
2017-Oct-13 17:28N 30°11' W 093°19'0 0.0
2017-Oct-13 16:58N 30°11' W 093°19'0 0.0
2017-Oct-13 16:28N 30°11' W 093°19'0 0.0
2017-Oct-13 15:58N 30°11' W 093°19'0 0.0
2017-Oct-13 15:28N 30°11' W 093°19'0 0.0
2017-Oct-13 14:58N 30°11' W 093°19'0 0.0
2017-Oct-13 14:28N 30°11' W 093°19'0 0.0
2017-Oct-13 13:58N 30°11' W 093°19'0 0.0
2017-Oct-13 13:28N 30°11' W 093°19'0 0.0
2017-Oct-13 12:58N 30°11' W 093°19'0 0.0
2017-Oct-13 12:28N 30°11' W 093°19'0 0.0
2017-Oct-13 11:58N 30°11' W 093°19'0 0.0
2017-Oct-13 11:28N 30°11' W 093°19'0 0.0
2017-Oct-13 10:58N 30°11' W 093°19'0 0.0
2017-Oct-13 10:28N 30°11' W 093°19'0 0.0
2017-Oct-13 09:58N 30°11' W 093°19'0 0.0
2017-Oct-13 09:28N 30°11' W 093°19'0 0.0
2017-Oct-13 09:00N 30°11' W 093°19'1 1.4
2017-Oct-13 08:31N 30°11' W 093°18'2 3.7
2017-Oct-13 08:00N 30°09' W 093°20'3 6.0
2017-Oct-13 07:30N 30°06' W 093°20'4 8.3
2017-Oct-13 07:00N 30°02' W 093°20'4 8.3
2017-Oct-13 06:30N 29°58' W 093°20'510.6
2017-Oct-13 06:00N 29°53' W 093°21'510.8
2017-Oct-13 05:30N 29°47' W 093°21'611.7
2017-Oct-13 05:00N 29°42' W 093°20'9 0.6
2017-Oct-12 14:04N 29°34' W 093°14'0 0.0
2017-Oct-12 13:55N 29°34' W 093°14'0 0.0
2017-Oct-12 13:28N 29°34' W 093°14'0 0.0
2017-Oct-12 12:58N 29°34' W 093°14'0 0.0
2017-Oct-12 12:28N 29°34' W 093°14'0 0.0
2017-Oct-12 11:52N 29°34' W 093°14'0 0.9
2017-Oct-12 11:30N 29°34' W 093°14'2 3.7
2017-Oct-12 10:58N 29°32' W 093°14'4 7.8
2017-Oct-12 10:30N 29°29' W 093°13'  
Track history (hours):
 
Tides and Currents Weather Stations Pressure Air Temp Water Temp Dewpoint Dewpoint Depression Visibility Wind Speed Wind Dir Waves Ship Positions

Atlantic Frontier

Last reported at 2017-Oct-17 21:49 UTC. Time now 2017-Oct-19 05:37 UTC.
Position N 29°47' W 093°21'.

Length 183 m; draft 7.4 m.

Type: Tanker. MMSI: 477969700.

Date/timePositionNaut miles runAvg speedWind from/ knotsBaromVisibWave heightAir tempDewpointWater temp
2017-Oct-17 21:49N 29°47' W 093°21'3 8.4
2017-Oct-17 21:30N 29°50' W 093°21'4 8.8
2017-Oct-17 21:01N 29°54' W 093°21'5 9.6
2017-Oct-17 20:30N 29°59' W 093°20'3 6.9
2017-Oct-17 20:00N 30°02' W 093°20'4 7.1
2017-Oct-17 19:30N 30°06' W 093°20'4 7.2
2017-Oct-17 19:01N 30°09' W 093°20'1 2.9
2017-Oct-17 18:31N 30°11' W 093°19'0 0.0
2017-Oct-17 17:58N 30°11' W 093°19'0 0.0
2017-Oct-17 17:28N 30°11' W 093°19'0 0.0
2017-Oct-17 16:58N 30°11' W 093°19'0 0.0
2017-Oct-17 16:28N 30°11' W 093°19'0 0.0
2017-Oct-17 15:58N 30°11' W 093°19'0 0.0
2017-Oct-17 15:28N 30°11' W 093°19'0 0.0
2017-Oct-17 14:58N 30°11' W 093°19'0 0.0
2017-Oct-17 14:28N 30°11' W 093°19'0 0.0
2017-Oct-17 13:58N 30°11' W 093°19'0 0.0
2017-Oct-17 13:28N 30°11' W 093°19'0 0.0
2017-Oct-17 12:58N 30°11' W 093°19'0 0.0
2017-Oct-17 12:28N 30°11' W 093°19'0 0.0
2017-Oct-17 11:58N 30°11' W 093°19'0 0.0
2017-Oct-17 11:28N 30°11' W 093°19'0 0.0
2017-Oct-17 10:58N 30°11' W 093°19'0 0.0
2017-Oct-17 10:28N 30°11' W 093°19'0 0.0
2017-Oct-17 09:58N 30°11' W 093°19'0 0.0
2017-Oct-17 09:28N 30°11' W 093°19'0 0.0
2017-Oct-17 08:58N 30°11' W 093°19'0 0.0
2017-Oct-17 08:28N 30°11' W 093°19'0 0.0
2017-Oct-17 07:58N 30°11' W 093°19'0 0.0
2017-Oct-17 07:28N 30°11' W 093°19'0 0.0
2017-Oct-17 06:58N 30°11' W 093°19'0 0.0
2017-Oct-17 06:28N 30°11' W 093°19'0 0.0
2017-Oct-17 05:58N 30°11' W 093°19'0 0.0
2017-Oct-17 05:28N 30°11' W 093°19'0 0.0
2017-Oct-17 04:58N 30°11' W 093°19'0 0.0
2017-Oct-17 04:28N 30°11' W 093°19'0 0.0
2017-Oct-17 03:58N 30°11' W 093°19'0 0.0
2017-Oct-17 03:16N 30°11' W 093°19'0 0.0
2017-Oct-17 02:58N 30°11' W 093°19'0 0.0
2017-Oct-17 02:28N 30°11' W 093°19'0 0.0
2017-Oct-17 01:58N 30°11' W 093°19'0 0.0
2017-Oct-17 01:28N 30°11' W 093°19'0 0.0
2017-Oct-17 00:58N 30°11' W 093°19'0 0.0
2017-Oct-17 00:28N 30°11' W 093°19'0 0.0
2017-Oct-16 23:58N 30°11' W 093°19'0 0.0
2017-Oct-16 23:28N 30°11' W 093°19'0 0.0
2017-Oct-16 22:58N 30°11' W 093°19'0 0.0
2017-Oct-16 22:28N 30°11' W 093°19'0 0.0
2017-Oct-16 21:58N 30°11' W 093°19'0 0.0
2017-Oct-16 21:28N 30°11' W 093°19'0 0.0
2017-Oct-16 20:58N 30°11' W 093°19'0 0.0
2017-Oct-16 20:28N 30°11' W 093°19'0 0.0
2017-Oct-16 19:58N 30°11' W 093°19'0 0.0
2017-Oct-16 19:28N 30°11' W 093°19'0 0.0
2017-Oct-16 18:58N 30°11' W 093°19'0 0.0
2017-Oct-16 18:28N 30°11' W 093°19'0 0.0
2017-Oct-16 17:58N 30°11' W 093°19'0 0.0
2017-Oct-16 17:28N 30°11' W 093°19'0 0.0
2017-Oct-16 16:58N 30°11' W 093°19'0 0.0
2017-Oct-16 16:28N 30°11' W 093°19'0 0.0
2017-Oct-16 15:58N 30°11' W 093°19'0 0.0
2017-Oct-16 15:28N 30°11' W 093°19'0 0.0
2017-Oct-16 14:58N 30°11' W 093°19'0 0.0
2017-Oct-16 13:58N 30°11' W 093°19'0 0.0
2017-Oct-16 13:28N 30°11' W 093°19'0 0.0
2017-Oct-16 12:58N 30°11' W 093°19'0 0.0
2017-Oct-16 12:28N 30°11' W 093°19'0 0.0
2017-Oct-16 11:58N 30°11' W 093°19'0 0.0
2017-Oct-16 11:28N 30°11' W 093°19'0 0.0
2017-Oct-16 10:58N 30°11' W 093°19'0 0.0
2017-Oct-16 10:28N 30°11' W 093°19'0 0.0
2017-Oct-16 09:58N 30°11' W 093°19'0 0.0
2017-Oct-16 09:28N 30°11' W 093°19'0 0.0
2017-Oct-16 08:58N 30°11' W 093°19'0 0.0
2017-Oct-16 08:28N 30°11' W 093°19'0 0.0
2017-Oct-16 07:58N 30°11' W 093°19'0 0.0
2017-Oct-16 07:28N 30°11' W 093°19'0 0.0
2017-Oct-16 06:58N 30°11' W 093°19'0 0.0
2017-Oct-16 06:28N 30°11' W 093°19'0 0.0
2017-Oct-16 05:58N 30°11' W 093°19'0 0.0
2017-Oct-16 05:25N 30°11' W 093°19'0 0.0
2017-Oct-16 04:58N 30°11' W 093°19'0 0.0
2017-Oct-16 04:28N 30°11' W 093°19'0 0.0
2017-Oct-16 03:58N 30°11' W 093°19'0 0.0
2017-Oct-16 03:28N 30°11' W 093°19'0 0.0
2017-Oct-16 02:58N 30°11' W 093°19'0 0.0
2017-Oct-16 02:28N 30°11' W 093°19'0 0.0
2017-Oct-16 01:58N 30°11' W 093°19'0 0.0
2017-Oct-16 01:28N 30°11' W 093°19'0 0.0
2017-Oct-16 00:58N 30°11' W 093°19'0 0.0
2017-Oct-16 00:28N 30°11' W 093°19'0 0.0
2017-Oct-15 23:58N 30°11' W 093°19'0 0.0
2017-Oct-15 23:28N 30°11' W 093°19'0 0.0
2017-Oct-15 22:58N 30°11' W 093°19'0 0.0
2017-Oct-15 22:28N 30°11' W 093°19'0 0.0
2017-Oct-15 21:58N 30°11' W 093°19'0 0.0
2017-Oct-15 21:28N 30°11' W 093°19'0 0.0
2017-Oct-15 20:58N 30°11' W 093°19'0 0.0
2017-Oct-15 20:28N 30°11' W 093°19'0 0.0
2017-Oct-15 19:58N 30°11' W 093°19'0 0.0
2017-Oct-15 19:28N 30°11' W 093°19'0 0.0
2017-Oct-15 18:58N 30°11' W 093°19'0 0.0
2017-Oct-15 18:28N 30°11' W 093°19'0 0.0
2017-Oct-15 17:58N 30°11' W 093°19'0 0.0
2017-Oct-15 17:28N 30°11' W 093°19'0 0.0
2017-Oct-15 16:58N 30°11' W 093°19'0 0.0
2017-Oct-15 16:28N 30°11' W 093°19'0 0.0
2017-Oct-15 15:58N 30°11' W 093°19'0 0.0
2017-Oct-15 15:28N 30°11' W 093°19'0 0.0
2017-Oct-15 14:58N 30°11' W 093°19'0 0.0
2017-Oct-15 13:58N 30°11' W 093°19'0 0.0
2017-Oct-15 13:28N 30°11' W 093°19'0 0.0
2017-Oct-15 12:58N 30°11' W 093°19'0 0.0
2017-Oct-15 12:28N 30°11' W 093°19'0 0.0
2017-Oct-15 11:58N 30°11' W 093°19'0 0.0
2017-Oct-15 11:28N 30°11' W 093°19'0 0.0
2017-Oct-15 10:58N 30°11' W 093°19'0 0.0
2017-Oct-15 10:28N 30°11' W 093°19'0 0.0
2017-Oct-15 09:58N 30°11' W 093°19'0 0.0
2017-Oct-15 09:28N 30°11' W 093°19'0 0.0
2017-Oct-15 08:58N 30°11' W 093°19'0 0.0
2017-Oct-15 08:28N 30°11' W 093°19'0 0.0
2017-Oct-15 07:58N 30°11' W 093°19'0 0.0
2017-Oct-15 07:28N 30°11' W 093°19'0 0.0
2017-Oct-15 06:58N 30°11' W 093°19'0 0.0
2017-Oct-15 06:28N 30°11' W 093°19'0 0.0
2017-Oct-15 05:58N 30°11' W 093°19'0 0.0
2017-Oct-15 05:28N 30°11' W 093°19'0 0.0
2017-Oct-15 04:58N 30°11' W 093°19'0 0.0
2017-Oct-15 04:28N 30°11' W 093°19'0 0.0
2017-Oct-15 03:58N 30°11' W 093°19'0 0.0
2017-Oct-15 03:28N 30°11' W 093°19'0 0.0
2017-Oct-15 02:58N 30°11' W 093°19'0 0.0
2017-Oct-15 02:28N 30°11' W 093°19'0 0.0
2017-Oct-15 01:58N 30°11' W 093°19'0 0.0
2017-Oct-15 01:28N 30°11' W 093°19'0 0.0
2017-Oct-15 00:58N 30°11' W 093°19'0 0.0
2017-Oct-15 00:28N 30°11' W 093°19'0 0.0
2017-Oct-14 23:55N 30°11' W 093°19'0 0.0
2017-Oct-14 23:28N 30°11' W 093°19'0 0.0
2017-Oct-14 22:58N 30°11' W 093°19'0 0.0
2017-Oct-14 22:28N 30°11' W 093°19'0 0.0
2017-Oct-14 21:58N 30°11' W 093°19'0 0.0
2017-Oct-14 21:28N 30°11' W 093°19'0 0.0
2017-Oct-14 20:58N 30°11' W 093°19'0 0.0
2017-Oct-14 20:28N 30°11' W 093°19'0 0.0
2017-Oct-14 19:58N 30°11' W 093°19'0 0.0
2017-Oct-14 19:28N 30°11' W 093°19'0 0.0
2017-Oct-14 18:58N 30°11' W 093°19'0 0.0
2017-Oct-14 18:28N 30°11' W 093°19'0 0.0
2017-Oct-14 17:58N 30°11' W 093°19'0 0.0
2017-Oct-14 17:28N 30°11' W 093°19'0 0.0
2017-Oct-14 16:58N 30°11' W 093°19'0 0.0
2017-Oct-14 16:13N 30°11' W 093°19'0 0.0
2017-Oct-14 15:58N 30°11' W 093°19'0 0.0
2017-Oct-14 15:28N 30°11' W 093°19'0 0.0
2017-Oct-14 14:58N 30°11' W 093°19'0 0.0
2017-Oct-14 14:28N 30°11' W 093°19'0 0.0
2017-Oct-14 13:58N 30°11' W 093°19'0 0.0
2017-Oct-14 13:28N 30°11' W 093°19'0 0.0
2017-Oct-14 12:58N 30°11' W 093°19'0 0.0
2017-Oct-14 12:28N 30°11' W 093°19'0 0.0
2017-Oct-14 11:55N 30°11' W 093°19'0 0.0
2017-Oct-14 11:22N 30°11' W 093°19'0 0.0
2017-Oct-14 10:58N 30°11' W 093°19'0 0.0
2017-Oct-14 10:28N 30°11' W 093°19'0 0.0
2017-Oct-14 09:58N 30°11' W 093°19'0 0.0
2017-Oct-14 09:25N 30°11' W 093°19'0 0.0
2017-Oct-14 08:58N 30°11' W 093°19'0 0.0
2017-Oct-14 08:28N 30°11' W 093°19'0 0.0
2017-Oct-14 07:58N 30°11' W 093°19'0 0.0
2017-Oct-14 07:28N 30°11' W 093°19'0 0.0
2017-Oct-14 06:58N 30°11' W 093°19'0 0.0
2017-Oct-14 06:28N 30°11' W 093°19'0 0.0
2017-Oct-14 05:58N 30°11' W 093°19'0 0.0
2017-Oct-14 05:28N 30°11' W 093°19'0 0.0
2017-Oct-14 04:58N 30°11' W 093°19'0 0.0
2017-Oct-14 04:28N 30°11' W 093°19'0 0.0
2017-Oct-14 03:58N 30°11' W 093°19'0 0.0
2017-Oct-14 03:28N 30°11' W 093°19'0 0.0
2017-Oct-14 02:58N 30°11' W 093°19'0 0.0
2017-Oct-14 02:28N 30°11' W 093°19'0 0.0
2017-Oct-14 01:58N 30°11' W 093°19'0 0.0
2017-Oct-14 01:28N 30°11' W 093°19'0 0.0
2017-Oct-14 00:58N 30°11' W 093°19'0 0.0
2017-Oct-14 00:28N 30°11' W 093°19'0 0.0
2017-Oct-13 23:58N 30°11' W 093°19'0 0.0
2017-Oct-13 23:28N 30°11' W 093°19'0 0.0
2017-Oct-13 22:58N 30°11' W 093°19'0 0.0
2017-Oct-13 22:28N 30°11' W 093°19'0 0.0
2017-Oct-13 21:58N 30°11' W 093°19'0 0.0
2017-Oct-13 21:28N 30°11' W 093°19'0 0.0
2017-Oct-13 20:55N 30°11' W 093°19'0 0.0
2017-Oct-13 20:28N 30°11' W 093°19'0 0.0
2017-Oct-13 19:58N 30°11' W 093°19'0 0.0
2017-Oct-13 19:28N 30°11' W 093°19'0 0.0
2017-Oct-13 18:58N 30°11' W 093°19'0 0.0
2017-Oct-13 18:28N 30°11' W 093°19'0 0.0
2017-Oct-13 17:58N 30°11' W 093°19'0 0.0
2017-Oct-13 17:28N 30°11' W 093°19'0 0.0
2017-Oct-13 16:58N 30°11' W 093°19'0 0.0
2017-Oct-13 16:28N 30°11' W 093°19'0 0.0
2017-Oct-13 15:58N 30°11' W 093°19'0 0.0
2017-Oct-13 15:28N 30°11' W 093°19'0 0.0
2017-Oct-13 14:58N 30°11' W 093°19'0 0.0
2017-Oct-13 14:28N 30°11' W 093°19'0 0.0
2017-Oct-13 13:58N 30°11' W 093°19'0 0.0
2017-Oct-13 13:28N 30°11' W 093°19'0 0.0
2017-Oct-13 12:58N 30°11' W 093°19'0 0.0
2017-Oct-13 12:28N 30°11' W 093°19'0 0.0
2017-Oct-13 11:58N 30°11' W 093°19'0 0.0
2017-Oct-13 11:28N 30°11' W 093°19'0 0.0
2017-Oct-13 10:58N 30°11' W 093°19'0 0.0
2017-Oct-13 10:28N 30°11' W 093°19'0 0.0
2017-Oct-13 09:58N 30°11' W 093°19'0 0.0
2017-Oct-13 09:28N 30°11' W 093°19'0 0.0
2017-Oct-13 09:00N 30°11' W 093°19'1 1.4
2017-Oct-13 08:31N 30°11' W 093°18'2 3.7
2017-Oct-13 08:00N 30°09' W 093°20'3 6.0
2017-Oct-13 07:30N 30°06' W 093°20'4 8.3
2017-Oct-13 07:00N 30°02' W 093°20'4 8.3
2017-Oct-13 06:30N 29°58' W 093°20'510.6
2017-Oct-13 06:00N 29°53' W 093°21'510.8
2017-Oct-13 05:30N 29°47' W 093°21'611.7
2017-Oct-13 05:00N 29°42' W 093°20'9 0.6
2017-Oct-12 14:04N 29°34' W 093°14'0 0.0
2017-Oct-12 13:55N 29°34' W 093°14'0 0.0
2017-Oct-12 13:28N 29°34' W 093°14'0 0.0
2017-Oct-12 12:58N 29°34' W 093°14'0 0.0
2017-Oct-12 12:28N 29°34' W 093°14'0 0.0
2017-Oct-12 11:52N 29°34' W 093°14'0 0.9
2017-Oct-12 11:30N 29°34' W 093°14'2 3.7
2017-Oct-12 10:58N 29°32' W 093°14'4 7.8
2017-Oct-12 10:30N 29°29' W 093°13'  

Dump ship's entire track history